createdAt,value
2018-05-29T00:00:36.940Z,23.45
2018-05-29T00:01:36.932Z,23.44
2018-05-29T00:02:36.933Z,23.40
2018-05-29T00:03:36.911Z,23.40
2018-05-29T00:04:36.898Z,23.36
2018-05-29T00:05:36.893Z,23.39
2018-05-29T00:06:36.879Z,23.32
2018-05-29T00:07:36.869Z,23.33
2018-05-29T00:08:36.864Z,23.36
2018-05-29T00:09:36.847Z,23.33
2018-05-29T00:10:36.839Z,23.29
2018-05-29T00:11:36.827Z,23.20
2018-05-29T00:12:36.817Z,23.26
2018-05-29T00:13:36.817Z,23.17
2018-05-29T00:14:36.795Z,23.28
2018-05-29T00:15:36.785Z,23.21
2018-05-29T00:16:36.773Z,23.17
2018-05-29T00:17:36.772Z,23.14
2018-05-29T00:18:36.753Z,23.14
2018-05-29T00:19:36.744Z,23.14
2018-05-29T00:20:36.738Z,23.08
2018-05-29T00:21:36.721Z,23.16
2018-05-29T00:22:36.710Z,23.13
2018-05-29T00:23:36.700Z,23.13
2018-05-29T00:24:36.688Z,23.10
2018-05-29T00:25:36.684Z,23.07
2018-05-29T00:26:36.670Z,23.07
2018-05-29T00:27:36.667Z,23.10
2018-05-29T00:28:36.646Z,23.08
2018-05-29T00:29:36.635Z,23.02
2018-05-29T00:30:36.624Z,23.06
2018-05-29T00:31:36.618Z,22.88
2018-05-29T00:32:36.602Z,22.95
2018-05-29T00:33:36.593Z,22.98
2018-05-29T00:34:36.584Z,22.89
2018-05-29T00:35:36.573Z,23.02
2018-05-29T00:36:36.561Z,22.93
2018-05-29T00:37:36.556Z,22.95
2018-05-29T00:38:36.541Z,22.95
2018-05-29T00:39:36.530Z,22.95
2018-05-29T00:40:36.523Z,22.92
2018-05-29T00:41:36.508Z,22.93
2018-05-29T00:42:36.497Z,22.91
2018-05-29T00:43:36.494Z,22.89
2018-05-29T00:44:36.476Z,22.93
2018-05-29T00:45:36.466Z,22.81
2018-05-29T00:46:36.457Z,22.89
2018-05-29T00:47:36.445Z,22.84
2018-05-29T00:48:36.438Z,22.93
2018-05-29T00:49:36.433Z,22.84
2018-05-29T00:50:36.415Z,22.77
2018-05-29T00:51:36.401Z,22.80
2018-05-29T00:52:36.395Z,22.80
2018-05-29T00:53:36.380Z,22.81
2018-05-29T00:54:36.377Z,22.83
2018-05-29T00:55:36.360Z,22.83
2018-05-29T00:56:36.346Z,22.81
2018-05-29T00:57:36.339Z,22.83
2018-05-29T00:58:36.333Z,22.83
2018-05-29T00:59:36.316Z,22.83
2018-05-29T01:00:36.303Z,22.77
2018-05-29T01:01:36.292Z,22.68
2018-05-29T01:02:36.281Z,22.68
2018-05-29T01:03:36.273Z,22.73
2018-05-29T01:04:36.258Z,22.78
2018-05-29T01:05:36.257Z,22.68
2018-05-29T01:06:36.242Z,22.71
2018-05-29T01:07:36.227Z,22.70
2018-05-29T01:08:36.221Z,22.67
2018-05-29T01:09:36.215Z,22.67
2018-05-29T01:10:36.203Z,22.67
2018-05-29T01:11:36.186Z,22.62
2018-05-29T01:12:36.205Z,22.65
2018-05-29T01:13:36.171Z,22.68
2018-05-29T01:14:36.152Z,22.65
2018-05-29T01:15:36.143Z,22.63
2018-05-29T01:16:36.130Z,22.65
2018-05-29T01:17:36.124Z,22.63
2018-05-29T01:18:36.109Z,22.67
2018-05-29T01:19:36.097Z,22.63
2018-05-29T01:20:36.085Z,22.62
2018-05-29T01:21:36.074Z,22.56
2018-05-29T01:22:36.065Z,22.59
2018-05-29T01:23:36.053Z,22.55
2018-05-29T01:24:36.044Z,22.51
2018-05-29T01:25:36.032Z,22.43
2018-05-29T01:26:36.028Z,22.41
2018-05-29T01:27:36.010Z,22.47
2018-05-29T01:28:35.999Z,22.43
2018-05-29T01:29:35.988Z,22.43
2018-05-29T01:30:35.976Z,22.44
2018-05-29T01:31:35.987Z,22.41
2018-05-29T01:32:35.954Z,22.36
2018-05-29T01:33:35.947Z,22.38
2018-05-29T01:34:35.933Z,22.33
2018-05-29T01:35:35.922Z,22.31
2018-05-29T01:36:35.919Z,22.37
2018-05-29T01:37:35.907Z,22.40
2018-05-29T01:38:35.898Z,22.34
2018-05-29T01:39:35.879Z,22.38
2018-05-29T01:40:35.866Z,22.34
2018-05-29T01:41:35.854Z,22.41
2018-05-29T01:42:35.845Z,22.37
2018-05-29T01:43:35.836Z,22.47
2018-05-29T01:44:35.823Z,22.33
2018-05-29T01:45:35.812Z,22.31
2018-05-29T01:46:35.799Z,22.33
2018-05-29T01:47:35.792Z,22.31
2018-05-29T01:48:35.778Z,22.36
2018-05-29T01:49:35.769Z,22.30
2018-05-29T01:50:35.755Z,22.38
2018-05-29T01:51:35.745Z,22.30
2018-05-29T01:52:35.734Z,22.30
2018-05-29T01:53:35.727Z,22.30
2018-05-29T01:54:35.712Z,22.19
2018-05-29T01:55:35.702Z,22.19
2018-05-29T01:56:35.689Z,22.16
2018-05-29T01:57:35.678Z,22.19
2018-05-29T01:58:35.668Z,22.08
2018-05-29T01:59:35.657Z,22.06
2018-05-29T02:00:35.644Z,22.01
2018-05-29T02:01:35.634Z,21.99
2018-05-29T02:02:35.624Z,22.00
2018-05-29T02:03:35.612Z,22.06
2018-05-29T02:04:35.659Z,21.96
2018-05-29T02:05:35.593Z,21.91
2018-05-29T02:06:35.581Z,21.94
2018-05-29T02:07:35.567Z,21.94
2018-05-29T02:08:35.558Z,21.88
2018-05-29T02:09:35.550Z,21.84
2018-05-29T02:10:35.582Z,21.88
2018-05-29T02:11:35.521Z,21.88
2018-05-29T02:12:35.510Z,21.84
2018-05-29T02:13:35.499Z,21.84
2018-05-29T02:14:35.487Z,21.83
2018-05-29T02:15:35.481Z,21.85
2018-05-29T02:16:35.463Z,21.81
2018-05-29T02:17:35.453Z,21.85
2018-05-29T02:18:35.441Z,21.88
2018-05-29T02:19:35.431Z,21.80
2018-05-29T02:20:35.417Z,21.81
2018-05-29T02:21:35.407Z,21.96
2018-05-29T02:22:35.397Z,21.96
2018-05-29T02:23:35.385Z,21.97
2018-05-29T02:24:35.374Z,22.00
2018-05-29T02:25:35.362Z,22.03
2018-05-29T02:26:35.354Z,21.99
2018-05-29T02:27:35.339Z,22.00
2018-05-29T02:28:35.331Z,21.97
2018-05-29T02:29:35.316Z,21.97
2018-05-29T02:30:35.308Z,21.91
2018-05-29T02:31:35.303Z,21.89
2018-05-29T02:32:35.283Z,21.85
2018-05-29T02:33:35.324Z,21.89
2018-05-29T02:34:35.260Z,21.85
2018-05-29T02:35:35.248Z,21.77
2018-05-29T02:36:35.238Z,21.78
2018-05-29T02:37:35.227Z,21.78
2018-05-29T02:38:35.217Z,21.72
2018-05-29T02:39:35.202Z,21.70
2018-05-29T02:40:35.192Z,21.68
2018-05-29T02:41:35.181Z,21.68
2018-05-29T02:42:35.169Z,21.65
2018-05-29T02:43:35.158Z,21.68
2018-05-29T02:44:35.157Z,21.59
2018-05-29T02:45:35.134Z,21.50
2018-05-29T02:46:35.124Z,21.54
2018-05-29T02:47:35.115Z,21.51
2018-05-29T02:48:35.100Z,21.53
2018-05-29T02:49:35.095Z,21.51
2018-05-29T02:50:35.084Z,21.58
2018-05-29T02:51:35.068Z,21.51
2018-05-29T02:52:35.053Z,21.51
2018-05-29T02:53:35.050Z,21.59
2018-05-29T02:54:35.033Z,21.56
2018-05-29T02:55:35.019Z,21.50
2018-05-29T02:56:35.008Z,21.58
2018-05-29T02:57:34.995Z,21.59
2018-05-29T02:58:34.987Z,21.58
2018-05-29T02:59:34.972Z,21.56
2018-05-29T03:00:34.961Z,21.53
2018-05-29T03:01:34.957Z,21.58
2018-05-29T03:02:34.939Z,21.58
2018-05-29T03:03:34.928Z,21.47
2018-05-29T03:04:34.915Z,21.59
2018-05-29T03:05:34.904Z,21.51
2018-05-29T03:06:34.893Z,21.51
2018-05-29T03:07:34.881Z,21.47
2018-05-29T03:08:34.869Z,21.53
2018-05-29T03:09:34.857Z,21.40
2018-05-29T03:10:34.848Z,21.56
2018-05-29T03:11:34.834Z,21.56
2018-05-29T03:12:34.823Z,21.53
2018-05-29T03:13:34.812Z,21.58
2018-05-29T03:14:34.808Z,21.59
2018-05-29T03:15:34.789Z,21.60
2018-05-29T03:16:34.777Z,21.72
2018-05-29T03:17:34.764Z,21.62
2018-05-29T03:18:34.754Z,21.65
2018-05-29T03:19:34.742Z,21.63
2018-05-29T03:20:34.732Z,21.60
2018-05-29T03:21:34.717Z,21.58
2018-05-29T03:22:34.711Z,21.70
2018-05-29T03:23:34.704Z,21.58
2018-05-29T03:24:34.683Z,21.60
2018-05-29T03:25:34.673Z,21.54
2018-05-29T03:26:34.676Z,21.50
2018-05-29T03:27:34.651Z,21.48
2018-05-29T03:28:34.637Z,21.43
2018-05-29T03:29:34.627Z,21.41
2018-05-29T03:30:34.622Z,21.44
2018-05-29T03:31:34.605Z,21.40
2018-05-29T03:32:34.596Z,21.38
2018-05-29T03:33:34.579Z,21.41
2018-05-29T03:34:34.569Z,21.47
2018-05-29T03:35:34.557Z,21.53
2018-05-29T03:36:34.548Z,21.53
2018-05-29T03:37:34.535Z,21.54
2018-05-29T03:38:34.524Z,21.45
2018-05-29T03:39:34.512Z,21.53
2018-05-29T03:40:34.496Z,21.56
2018-05-29T03:41:34.504Z,21.48
2018-05-29T03:42:34.476Z,21.44
2018-05-29T03:43:34.464Z,21.47
2018-05-29T03:44:34.453Z,21.54
2018-05-29T03:45:34.445Z,21.53
2018-05-29T03:46:34.429Z,21.50
2018-05-29T03:47:34.418Z,21.56
2018-05-29T03:48:34.417Z,21.51
2018-05-29T03:49:34.397Z,21.54
2018-05-29T03:50:34.383Z,21.47
2018-05-29T03:51:34.372Z,21.45
2018-05-29T03:52:34.364Z,21.51
2018-05-29T03:53:34.346Z,21.58
2018-05-29T03:54:34.336Z,21.44
2018-05-29T03:55:34.335Z,21.53
2018-05-29T03:56:34.313Z,21.54
2018-05-29T03:57:34.401Z,21.60
2018-05-29T03:58:34.291Z,21.59
2018-05-29T03:59:34.278Z,21.66
2018-05-29T04:00:34.266Z,21.51
2018-05-29T04:01:34.253Z,21.58
2018-05-29T04:03:34.231Z,21.51
2018-05-29T04:04:34.219Z,21.62
2018-05-29T04:05:34.207Z,21.60
2018-05-29T04:06:34.205Z,21.70
2018-05-29T04:07:34.186Z,21.66
2018-05-29T04:08:34.175Z,21.75
2018-05-29T04:09:34.161Z,21.68
2018-05-29T04:10:34.151Z,21.80
2018-05-29T04:11:34.139Z,21.80
2018-05-29T04:12:34.131Z,21.75
2018-05-29T04:13:34.116Z,21.78
2018-05-29T04:14:34.105Z,21.81
2018-05-29T04:15:34.099Z,21.80
2018-05-29T04:16:34.083Z,21.78
2018-05-29T04:17:34.069Z,21.80
2018-05-29T04:18:34.059Z,21.78
2018-05-29T04:19:34.048Z,21.78
2018-05-29T04:20:34.037Z,21.81
2018-05-29T04:21:34.032Z,21.78
2018-05-29T04:22:34.022Z,21.81
2018-05-29T04:23:34.003Z,21.74
2018-05-29T04:24:33.988Z,21.75
2018-05-29T04:25:33.984Z,21.89
2018-05-29T04:26:33.967Z,21.80
2018-05-29T04:28:33.941Z,21.70
2018-05-29T04:29:33.933Z,21.80
2018-05-29T04:30:33.935Z,21.84
2018-05-29T04:31:33.916Z,21.85
2018-05-29T04:32:33.898Z,21.84
2018-05-29T04:33:33.887Z,21.84
2018-05-29T04:34:33.878Z,21.81
2018-05-29T04:35:33.863Z,21.85
2018-05-29T04:36:33.853Z,21.85
2018-05-29T04:37:33.839Z,21.80
2018-05-29T04:38:33.835Z,21.89
2018-05-29T04:39:33.817Z,21.89
2018-05-29T04:40:33.807Z,21.96
2018-05-29T04:41:33.800Z,21.99
2018-05-29T04:42:33.795Z,21.94
2018-05-29T04:43:33.773Z,21.84
2018-05-29T04:44:33.761Z,21.92
2018-05-29T04:45:33.749Z,21.99
2018-05-29T04:46:33.738Z,21.97
2018-05-29T04:47:33.726Z,22.04
2018-05-29T04:48:33.716Z,22.12
2018-05-29T04:49:33.750Z,22.12
2018-05-29T04:50:33.701Z,22.12
2018-05-29T04:51:33.681Z,22.18
2018-05-29T04:52:33.668Z,22.36
2018-05-29T04:53:33.660Z,22.31
2018-05-29T04:54:33.656Z,22.34
2018-05-29T04:55:33.636Z,22.46
2018-05-29T04:56:33.637Z,22.44
2018-05-29T04:57:33.616Z,22.41
2018-05-29T04:58:33.604Z,22.53
2018-05-29T04:59:33.592Z,22.56
2018-05-29T05:00:33.585Z,22.61
2018-05-29T05:01:33.569Z,22.61
2018-05-29T05:02:33.563Z,22.68
2018-05-29T05:03:33.547Z,22.68
2018-05-29T05:04:33.536Z,22.68
2018-05-29T05:05:33.524Z,22.52
2018-05-29T05:06:33.513Z,22.51
2018-05-29T05:07:33.507Z,22.58
2018-05-29T05:08:33.510Z,22.61
2018-05-29T05:09:33.482Z,22.61
2018-05-29T05:10:33.469Z,22.61
2018-05-29T05:11:33.459Z,22.46
2018-05-29T05:12:33.446Z,22.53
2018-05-29T05:13:33.435Z,22.58
2018-05-29T05:14:33.425Z,22.58
2018-05-29T05:15:33.413Z,22.61
2018-05-29T05:16:33.402Z,22.65
2018-05-29T05:17:33.393Z,22.76
2018-05-29T05:18:33.384Z,22.80
2018-05-29T05:19:33.370Z,22.83
2018-05-29T05:20:33.359Z,22.93
2018-05-29T05:21:33.347Z,22.98
2018-05-29T05:22:33.337Z,23.14
2018-05-29T05:23:33.444Z,23.18
2018-05-29T05:24:33.314Z,23.20
2018-05-29T05:25:33.303Z,23.25
2018-05-29T05:26:33.291Z,23.28
2018-05-29T05:27:33.296Z,23.33
2018-05-29T05:28:33.269Z,23.37
2018-05-29T05:29:33.265Z,23.34
2018-05-29T05:30:33.248Z,23.42
2018-05-29T05:31:33.252Z,23.51
2018-05-29T05:32:33.228Z,23.64
2018-05-29T05:33:33.216Z,24.07
2018-05-29T05:34:33.205Z,24.79
2018-05-29T05:35:33.198Z,25.63
2018-05-29T05:36:33.187Z,26.19
2018-05-29T05:37:33.173Z,26.83
2018-05-29T05:38:33.174Z,27.08
2018-05-29T05:39:33.176Z,27.50
2018-05-29T05:40:33.141Z,27.61
2018-05-29T05:41:33.137Z,27.90
2018-05-29T05:42:33.126Z,27.83
2018-05-29T05:43:33.113Z,28.18
2018-05-29T05:44:33.107Z,28.30
2018-05-29T05:45:33.093Z,28.68
2018-05-29T05:46:33.087Z,28.87
2018-05-29T05:47:33.078Z,29.02
2018-05-29T05:48:33.068Z,29.22
2018-05-29T05:49:33.070Z,29.35
2018-05-29T05:50:33.055Z,29.73
2018-05-29T05:51:33.045Z,28.94
2018-05-29T05:52:33.039Z,28.89
2018-05-29T05:53:33.033Z,29.09
2018-05-29T05:54:33.025Z,29.52
2018-05-29T05:55:33.019Z,29.71
2018-05-29T05:56:33.017Z,29.80
2018-05-29T05:57:33.006Z,29.95
2018-05-29T05:58:33.092Z,30.01
2018-05-29T05:59:32.995Z,30.02
2018-05-29T06:00:32.988Z,30.24
2018-05-29T06:01:32.984Z,30.52
2018-05-29T06:02:32.980Z,30.55
2018-05-29T06:03:32.981Z,30.77
2018-05-29T06:04:32.978Z,30.78
2018-05-29T06:05:32.972Z,31.08
2018-05-29T06:06:32.961Z,31.54
2018-05-29T06:07:32.958Z,31.36
2018-05-29T06:08:32.952Z,31.39
2018-05-29T06:09:32.950Z,31.72
2018-05-29T06:10:32.951Z,31.93
2018-05-29T06:11:32.942Z,32.01
2018-05-29T06:12:32.946Z,31.85
2018-05-29T06:13:32.934Z,31.87
2018-05-29T06:14:32.937Z,31.73
2018-05-29T06:15:32.930Z,31.69
2018-05-29T06:16:32.933Z,31.78
2018-05-29T06:17:32.924Z,32.20
2018-05-29T06:18:32.923Z,32.26
2018-05-29T06:19:32.921Z,32.31
2018-05-29T06:20:32.920Z,32.24
2018-05-29T06:21:32.916Z,32.24
2018-05-29T06:22:32.931Z,32.31
2018-05-29T06:23:32.913Z,32.37
2018-05-29T06:24:32.913Z,32.19
2018-05-29T06:25:32.910Z,32.31
2018-05-29T06:26:32.908Z,32.61
2018-05-29T06:27:32.909Z,33.10
2018-05-29T06:28:32.915Z,33.44
2018-05-29T06:29:32.905Z,33.48
2018-05-29T06:30:32.905Z,33.40
2018-05-29T06:31:32.905Z,33.42
2018-05-29T06:32:32.907Z,33.73
2018-05-29T06:33:32.902Z,33.23
2018-05-29T06:34:32.904Z,33.17
2018-05-29T06:35:32.904Z,33.17
2018-05-29T06:36:32.903Z,33.35
2018-05-29T06:37:32.909Z,33.61
2018-05-29T06:38:32.905Z,33.09
2018-05-29T06:39:32.905Z,32.94
2018-05-29T06:40:32.904Z,32.79
2018-05-29T06:41:32.907Z,32.98
2018-05-29T06:42:32.908Z,32.54
2018-05-29T06:43:32.909Z,31.60
2018-05-29T06:44:32.909Z,31.59
2018-05-29T06:45:32.917Z,31.72
2018-05-29T06:46:32.918Z,31.90
2018-05-29T06:47:32.922Z,31.85
2018-05-29T06:48:32.912Z,31.93
2018-05-29T06:49:32.913Z,31.95
2018-05-29T06:50:32.915Z,31.66
2018-05-29T06:51:32.917Z,31.78
2018-05-29T06:52:32.958Z,31.74
2018-05-29T06:53:32.916Z,31.60
2018-05-29T06:54:32.918Z,31.45
2018-05-29T06:55:32.919Z,31.18
2018-05-29T06:56:32.919Z,30.78
2018-05-29T06:57:32.922Z,30.76
2018-05-29T06:58:32.942Z,31.02
2018-05-29T06:59:32.925Z,31.29
2018-05-29T07:00:32.923Z,31.51
2018-05-29T07:01:32.926Z,31.62
2018-05-29T07:02:32.928Z,31.73
2018-05-29T07:03:32.930Z,31.78
2018-05-29T07:04:32.932Z,31.67
2018-05-29T07:05:32.947Z,31.39
2018-05-29T07:06:32.934Z,31.64
2018-05-29T07:07:32.935Z,31.89
2018-05-29T07:08:32.937Z,31.85
2018-05-29T07:09:32.939Z,31.90
2018-05-29T07:10:32.945Z,31.98
2018-05-29T07:11:32.939Z,31.66
2018-05-29T07:12:32.946Z,32.01
2018-05-29T07:13:32.940Z,31.64
2018-05-29T07:14:33.005Z,30.95
2018-05-29T07:15:32.940Z,30.99
2018-05-29T07:16:32.941Z,30.93
2018-05-29T07:17:32.952Z,31.23
2018-05-29T07:18:32.944Z,31.26
2018-05-29T07:19:32.945Z,31.60
2018-05-29T07:20:32.952Z,31.82
2018-05-29T07:21:32.948Z,31.92
2018-05-29T07:22:32.949Z,32.09
2018-05-29T07:23:32.951Z,31.92
2018-05-29T07:24:32.953Z,31.86
2018-05-29T07:25:32.954Z,31.14
2018-05-29T07:26:32.956Z,30.80
2018-05-29T07:27:32.959Z,30.48
2018-05-29T07:28:32.959Z,30.59
2018-05-29T07:29:32.961Z,30.52
2018-05-29T07:30:32.968Z,30.46
2018-05-29T07:31:32.964Z,30.40
2018-05-29T07:32:32.964Z,30.24
2018-05-29T07:33:32.967Z,30.26
2018-05-29T07:34:32.966Z,30.24
2018-05-29T07:35:32.970Z,30.16
2018-05-29T07:36:32.967Z,30.02
2018-05-29T07:37:32.970Z,29.83
2018-05-29T07:38:32.965Z,30.05
2018-05-29T07:39:33.024Z,30.43
2018-05-29T07:40:32.975Z,30.76
2018-05-29T07:41:32.964Z,30.99
2018-05-29T07:42:32.964Z,31.22
2018-05-29T07:43:32.962Z,31.39
2018-05-29T07:44:32.966Z,31.28
2018-05-29T07:45:32.959Z,31.28
2018-05-29T07:46:32.956Z,31.39
2018-05-29T07:47:32.963Z,31.33
2018-05-29T07:48:32.953Z,31.25
2018-05-29T07:49:32.952Z,31.37
2018-05-29T07:50:32.948Z,31.25
2018-05-29T07:51:32.948Z,31.05
2018-05-29T07:52:32.944Z,30.80
2018-05-29T07:53:32.942Z,30.78
2018-05-29T07:54:32.940Z,30.88
2018-05-29T07:55:32.937Z,30.92
2018-05-29T07:56:32.936Z,30.70
2018-05-29T07:57:32.930Z,30.69
2018-05-29T07:58:32.929Z,30.51
2018-05-29T07:59:32.926Z,30.52
2018-05-29T08:00:32.923Z,30.48
2018-05-29T08:01:32.925Z,30.51
2018-05-29T08:02:32.917Z,30.52
2018-05-29T08:03:32.914Z,30.52
2018-05-29T08:04:32.916Z,30.55
2018-05-29T08:05:32.908Z,30.61
2018-05-29T08:06:32.913Z,30.46
2018-05-29T08:07:32.903Z,30.43
2018-05-29T08:08:32.904Z,30.51
2018-05-29T08:09:32.904Z,30.59
2018-05-29T08:10:32.910Z,30.48
2018-05-29T08:11:32.893Z,30.33
2018-05-29T08:12:32.887Z,30.38
2018-05-29T08:13:32.891Z,30.46
2018-05-29T08:14:32.878Z,30.40
2018-05-29T08:15:32.876Z,30.43
2018-05-29T08:16:32.879Z,30.27
2018-05-29T08:17:32.877Z,30.35
2018-05-29T08:18:32.887Z,30.33
2018-05-29T08:19:32.860Z,30.27
2018-05-29T08:20:32.857Z,30.21
2018-05-29T08:21:32.853Z,30.27
2018-05-29T08:22:32.855Z,30.55
2018-05-29T08:23:32.848Z,30.61
2018-05-29T08:24:32.887Z,30.73
2018-05-29T08:25:32.836Z,30.80
2018-05-29T08:26:32.831Z,30.96
2018-05-29T08:27:32.832Z,31.05
2018-05-29T08:28:32.823Z,31.11
2018-05-29T08:29:32.820Z,31.20
2018-05-29T08:30:32.815Z,31.22
2018-05-29T08:31:32.812Z,30.88
2018-05-29T08:32:32.813Z,30.88
2018-05-29T08:33:32.808Z,30.93
2018-05-29T08:34:32.797Z,31.00
2018-05-29T08:36:16.928Z,30.73
2018-05-29T08:37:17.932Z,30.71
2018-05-29T08:38:16.916Z,30.81
2018-05-29T08:40:25.998Z,30.74
2018-05-29T08:41:25.991Z,30.76
2018-05-29T08:42:25.977Z,30.78
2018-05-29T08:43:25.982Z,31.04
2018-05-29T08:44:25.969Z,31.00
2018-05-29T08:45:25.964Z,31.13
2018-05-29T08:46:25.964Z,31.45
2018-05-29T08:47:25.964Z,31.52
2018-05-29T08:48:25.950Z,31.52
2018-05-29T08:49:25.943Z,31.78
2018-05-29T08:50:25.938Z,31.97
2018-05-29T08:51:26.950Z,31.93
2018-05-29T08:52:25.941Z,31.97
2018-05-29T08:53:25.942Z,31.81
2018-05-29T09:00:19.586Z,31.60
2018-05-29T09:01:19.572Z,31.51
2018-05-29T09:02:19.569Z,31.55
2018-05-29T09:03:19.565Z,31.51
2018-05-29T09:04:19.571Z,31.62
2018-05-29T09:05:19.565Z,31.73
2018-05-29T09:06:19.553Z,32.04
2018-05-29T09:07:19.550Z,32.23
2018-05-29T09:08:19.547Z,32.54
2018-05-29T09:09:19.547Z,32.54
2018-05-29T09:10:22.569Z,32.27
2018-05-29T09:11:20.958Z,32.44
2018-05-29T09:14:37.846Z,33.05
2018-05-29T09:15:37.844Z,33.32
2018-05-29T09:16:37.843Z,33.31
2018-05-29T09:17:37.839Z,33.01
2018-05-29T09:18:37.846Z,32.83
2018-05-29T09:19:37.839Z,32.34
2018-05-29T09:20:37.847Z,32.17
2018-05-29T09:21:37.835Z,32.57
2018-05-29T09:22:37.842Z,32.90
2018-05-29T09:23:37.835Z,32.79
2018-05-29T09:24:37.834Z,32.59
2018-05-29T09:25:37.832Z,32.48
2018-05-29T09:26:37.836Z,32.34
2018-05-29T09:27:37.831Z,32.44
2018-05-29T09:28:37.836Z,32.72
2018-05-29T09:29:37.842Z,32.90
2018-05-29T09:30:37.830Z,33.38
2018-05-29T09:31:37.837Z,33.63
2018-05-29T09:32:37.833Z,33.98
2018-05-29T09:33:37.830Z,34.14
2018-05-29T09:34:37.828Z,34.35
2018-05-29T09:35:37.830Z,34.10
2018-05-29T09:37:39.334Z,33.94
2018-05-29T09:38:39.331Z,33.89
2018-05-29T09:39:39.342Z,34.00
2018-05-29T09:40:39.333Z,33.95
2018-05-29T09:41:39.344Z,34.07
2018-05-29T09:42:39.337Z,34.32
2018-05-29T09:43:39.342Z,33.65
2018-05-29T09:44:39.383Z,33.89
2018-05-29T09:45:39.341Z,34.11
2018-05-29T09:46:39.353Z,34.19
2018-05-29T09:47:39.344Z,34.13
2018-05-29T09:48:39.345Z,33.40
2018-05-29T09:49:39.347Z,33.19
2018-05-29T09:50:39.353Z,33.63
2018-05-29T09:51:39.353Z,33.85
2018-05-29T09:52:39.370Z,34.00
2018-05-29T09:53:39.355Z,33.82
2018-05-29T09:54:39.355Z,33.94
2018-05-29T09:55:39.365Z,33.85
2018-05-29T09:56:39.358Z,33.85
2018-05-29T09:57:39.359Z,33.92
2018-05-29T09:58:39.363Z,34.40
2018-05-29T09:59:39.366Z,34.94
2018-05-29T10:00:39.364Z,34.24
2018-05-29T10:01:39.361Z,33.98
2018-05-29T10:02:39.376Z,34.09
2018-05-29T10:03:39.365Z,34.33
2018-05-29T10:04:39.366Z,33.82
2018-05-29T10:05:39.367Z,34.35
2018-05-29T10:06:39.374Z,34.89
2018-05-29T10:07:39.370Z,35.38
2018-05-29T10:08:39.372Z,35.60
2018-05-29T10:09:39.373Z,35.63
2018-05-29T10:10:39.371Z,35.61
2018-05-29T10:11:39.381Z,35.32
2018-05-29T10:12:39.381Z,35.32
2018-05-29T10:13:39.379Z,35.63
2018-05-29T10:14:42.821Z,36.18
2018-05-29T10:15:39.389Z,36.09
2018-05-29T10:16:39.387Z,36.13
2018-05-29T10:17:39.424Z,36.36
2018-05-29T10:18:39.390Z,36.72
2018-05-29T10:19:39.404Z,36.82
2018-05-29T10:20:39.400Z,36.67
2018-05-29T10:21:39.408Z,34.83
2018-05-29T10:22:39.410Z,34.22
2018-05-29T10:23:39.417Z,33.97
2018-05-29T10:24:39.435Z,34.16
2018-05-29T10:25:39.425Z,34.19
2018-05-29T10:26:39.427Z,34.69
2018-05-29T10:27:39.434Z,35.47
2018-05-29T10:28:39.439Z,35.81
2018-05-29T10:29:39.441Z,35.54
2018-05-29T10:30:39.462Z,35.56
2018-05-29T10:31:39.451Z,35.93
2018-05-29T10:32:39.460Z,36.13
2018-05-29T10:33:39.462Z,36.38
2018-05-29T10:34:39.471Z,36.57
2018-05-29T10:35:39.476Z,36.84
2018-05-29T10:36:39.489Z,36.29
2018-05-29T10:37:39.488Z,36.51
2018-05-29T10:38:39.505Z,36.51
2018-05-29T10:39:39.497Z,36.05
2018-05-29T10:40:39.521Z,35.64
2018-05-29T10:41:39.515Z,36.06
2018-05-29T10:42:39.518Z,36.44
2018-05-29T10:43:39.525Z,36.32
2018-05-29T10:44:39.531Z,36.29
2018-05-29T10:45:39.544Z,36.25
2018-05-29T10:46:39.553Z,36.18
2018-05-29T10:47:39.560Z,35.37
2018-05-29T10:48:39.560Z,35.26
2018-05-29T10:49:39.567Z,35.38
2018-05-29T10:50:39.574Z,35.42
2018-05-29T10:51:39.588Z,35.45
2018-05-29T10:52:39.595Z,35.76
2018-05-29T10:53:39.595Z,35.72
2018-05-29T10:54:39.603Z,36.17
2018-05-29T10:55:39.609Z,36.62
2018-05-29T10:56:39.617Z,36.87
2018-05-29T10:57:39.625Z,37.16
2018-05-29T10:58:39.644Z,37.23
2018-05-29T10:59:39.636Z,36.50
2018-05-29T11:00:39.647Z,35.64
2018-05-29T11:01:39.653Z,35.34
2018-05-29T11:02:39.661Z,35.96
2018-05-29T11:03:39.667Z,36.36
2018-05-29T11:04:39.674Z,36.53
2018-05-29T11:05:39.684Z,36.57
2018-05-29T11:06:39.696Z,35.96
2018-05-29T11:07:39.712Z,35.64
2018-05-29T11:08:39.710Z,36.00
2018-05-29T11:09:39.712Z,35.54
2018-05-29T11:10:39.727Z,35.87
2018-05-29T11:11:39.725Z,36.55
2018-05-29T11:12:39.735Z,36.36
2018-05-29T11:13:39.741Z,36.75
2018-05-29T11:14:39.748Z,37.18
2018-05-29T11:15:39.756Z,37.43
2018-05-29T11:16:39.763Z,36.09
2018-05-29T11:17:39.772Z,36.01
2018-05-29T11:18:39.780Z,36.26
2018-05-29T11:19:39.792Z,35.61
2018-05-29T11:20:39.792Z,35.52
2018-05-29T11:21:39.804Z,35.41
2018-05-29T11:22:39.811Z,35.56
2018-05-29T11:23:39.818Z,35.42
2018-05-29T11:24:39.826Z,35.59
2018-05-29T11:25:39.835Z,34.98
2018-05-29T11:26:39.840Z,34.07
2018-05-29T11:27:39.849Z,34.21
2018-05-29T11:28:39.857Z,34.59
2018-05-29T11:29:39.871Z,35.08
2018-05-29T11:30:39.867Z,35.22
2018-05-29T11:31:39.876Z,35.23
2018-05-29T11:32:39.891Z,34.89
2018-05-29T11:33:39.891Z,34.69
2018-05-29T11:34:39.895Z,35.04
2018-05-29T11:35:39.910Z,34.35
2018-05-29T11:36:39.907Z,34.03
2018-05-29T11:37:39.914Z,33.85
2018-05-29T11:38:39.971Z,34.44
2018-05-29T11:39:39.925Z,34.91
2018-05-29T11:40:39.931Z,34.78
2018-05-29T11:41:39.938Z,34.38
2018-05-29T11:42:39.940Z,34.47
2018-05-29T11:43:39.948Z,34.13
2018-05-29T11:44:39.952Z,34.29
2018-05-29T11:45:39.956Z,33.79
2018-05-29T11:46:39.962Z,33.81
2018-05-29T11:47:39.969Z,33.87
2018-05-29T11:48:40.033Z,34.13
2018-05-29T11:49:39.970Z,34.02
2018-05-29T11:50:39.983Z,33.98
2018-05-29T11:51:39.987Z,34.10
2018-05-29T11:52:39.978Z,33.95
2018-05-29T11:53:39.986Z,33.87
2018-05-29T11:54:39.981Z,34.11
2018-05-29T11:55:39.991Z,34.16
2018-05-29T11:56:39.984Z,34.22
2018-05-29T11:57:39.996Z,33.81
2018-05-29T11:58:39.995Z,33.66
2018-05-29T11:59:39.987Z,33.63
2018-05-29T12:00:40.091Z,33.16
2018-05-29T12:01:40.003Z,32.67
2018-05-29T12:02:39.992Z,32.81
2018-05-29T12:03:39.994Z,32.39
2018-05-29T12:04:39.987Z,32.57
2018-05-29T12:05:39.987Z,32.63
2018-05-29T12:06:39.989Z,32.45
2018-05-29T12:07:40.043Z,32.56
2018-05-29T12:08:39.985Z,32.94
2018-05-29T12:09:39.984Z,33.10
2018-05-29T12:10:39.983Z,33.17
2018-05-29T12:11:39.980Z,33.09
2018-05-29T12:12:39.989Z,32.98
2018-05-29T12:13:39.979Z,32.95
2018-05-29T12:14:39.976Z,33.12
2018-05-29T12:15:39.974Z,33.09
2018-05-29T12:16:39.983Z,33.32
2018-05-29T12:17:39.973Z,33.53
2018-05-29T12:18:39.969Z,33.66
2018-05-29T12:19:39.967Z,33.28
2018-05-29T12:20:39.966Z,33.23
2018-05-29T12:21:39.967Z,32.97
2018-05-29T12:22:39.964Z,32.41
2018-05-29T12:23:39.960Z,32.08
2018-05-29T12:24:39.964Z,32.22
2018-05-29T12:25:39.965Z,32.27
2018-05-29T12:26:39.955Z,32.37
2018-05-29T12:27:39.952Z,32.38
2018-05-29T12:28:39.950Z,32.44
2018-05-29T12:29:39.945Z,32.19
2018-05-29T12:30:39.943Z,31.98
2018-05-29T12:31:39.941Z,31.77
2018-05-29T12:32:39.939Z,32.07
2018-05-29T12:33:39.936Z,32.31
2018-05-29T12:34:39.931Z,32.59
2018-05-29T12:35:39.939Z,32.91
2018-05-29T12:36:39.935Z,32.95
2018-05-29T12:37:39.923Z,33.16
2018-05-29T12:38:39.939Z,33.12
2018-05-29T12:39:39.918Z,33.20
2018-05-29T12:40:39.915Z,33.01
2018-05-29T12:41:39.915Z,32.85
2018-05-29T12:42:39.907Z,32.78
2018-05-29T12:43:39.906Z,32.53
2018-05-29T12:44:39.902Z,32.44
2018-05-29T12:45:39.911Z,32.35
2018-05-29T12:46:39.896Z,32.45
2018-05-29T12:47:39.900Z,32.59
2018-05-29T12:48:39.894Z,32.57
2018-05-29T12:49:39.887Z,32.46
2018-05-29T12:50:39.894Z,32.61
2018-05-29T12:51:39.882Z,32.76
2018-05-29T12:52:39.879Z,32.97
2018-05-29T12:53:39.877Z,32.88
2018-05-29T12:54:39.872Z,32.75
2018-05-29T12:55:39.867Z,32.56
2018-05-29T12:56:39.870Z,32.31
2018-05-29T12:57:39.862Z,32.02
2018-05-29T12:58:39.905Z,32.09
2018-05-29T12:59:39.863Z,32.15
2018-05-29T13:00:39.859Z,32.42
2018-05-29T13:01:39.851Z,32.44
2018-05-29T13:02:39.845Z,32.30
2018-05-29T13:03:39.843Z,32.45
2018-05-29T13:04:39.854Z,32.35
2018-05-29T13:05:39.857Z,32.31